Time;durP1;ratioP1;P1;durP2;ratioP2;P2;SDS_P1;SDS_P2;PMS_P1;PMS_P2;Temp;Humidity;BMP_temperature;BMP_pressure;BME280_temperature;BME280_humidity;BME280_pressure;Samples;Min_cycle;Max_cycle;Signal;HPM_P1;HPM_P2
2022/04/19 00:00:20;;;;;;;;;14.33;14.33;;;;;15.22;50.97;100750.50;5057028;28;45451;-60
2022/04/19 00:02:46;;;;;;;;;12.33;11.33;;;;;15.15;50.76;100743.81;5073650;28;45545;-60
2022/04/19 00:05:12;;;;;;;;;14.67;14.67;;;;;15.11;50.73;100744.91;5060381;28;45395;-60
2022/04/19 00:07:37;;;;;;;;;8.33;8.33;;;;;15.10;50.90;100740.56;5073812;28;45433;-60
2022/04/19 00:10:05;;;;;;;;;9.00;8.00;;;;;15.09;49.96;100738.81;5060780;28;45642;-60
2022/04/19 00:12:30;;;;;;;;;8.00;8.00;;;;;15.08;49.83;100741.56;5074516;28;45516;-60
2022/04/19 00:14:56;;;;;;;;;9.00;7.33;;;;;15.11;50.24;100739.59;5072927;28;45522;-60
2022/04/19 00:17:21;;;;;;;;;8.67;7.33;;;;;15.05;50.36;100737.28;5067771;28;45716;-60
2022/04/19 00:19:47;;;;;;;;;8.67;7.00;;;;;15.02;50.51;100727.69;5075309;27;45500;-58
2022/04/19 00:22:12;;;;;;;;;8.67;8.67;;;;;14.98;50.00;100735.88;5058455;27;45897;-61
2022/04/19 00:24:38;;;;;;;;;6.33;6.33;;;;;14.79;50.24;100707.69;5061696;28;45675;-60
2022/04/19 00:27:04;;;;;;;;;7.67;6.00;;;;;14.97;50.10;100732.38;5076693;27;45442;-60
2022/04/19 00:29:29;;;;;;;;;9.33;9.00;;;;;14.94;49.62;100729.03;5076777;27;45501;-61
2022/04/19 00:31:54;;;;;;;;;9.33;8.00;;;;;14.95;49.81;100725.44;5076280;27;46255;-60
2022/04/19 00:34:20;;;;;;;;;7.67;7.67;;;;;14.92;49.59;100733.56;5073648;28;45374;-59
2022/04/19 00:36:45;;;;;;;;;6.00;6.00;;;;;14.88;49.79;100724.88;5075193;28;45485;-60
2022/04/19 00:39:11;;;;;;;;;7.67;7.00;;;;;14.89;49.99;100728.41;5065668;27;45483;-60
2022/04/19 00:41:36;;;;;;;;;8.00;7.67;;;;;14.91;49.98;100726.53;5093543;27;46631;-60
2022/04/19 00:44:01;;;;;;;;;8.67;6.00;;;;;14.92;49.50;100725.59;5070495;27;45563;-60
2022/04/19 00:46:27;;;;;;;;;6.00;5.67;;;;;14.91;49.28;100723.88;5062559;28;45433;-60
2022/04/19 00:48:52;;;;;;;;;8.33;7.33;;;;;14.86;49.34;100721.47;5075052;27;45475;-60
2022/04/19 00:51:19;;;;;;;;;9.00;7.67;;;;;14.80;49.43;100713.81;5061753;27;45401;-59
2022/04/19 00:53:45;;;;;;;;;10.00;9.00;;;;;14.79;49.33;100720.06;5073568;28;47370;-59
2022/04/19 00:56:11;;;;;;;;;7.33;7.33;;;;;14.74;50.18;100708.84;5068182;27;45428;-60
2022/04/19 00:58:36;;;;;;;;;8.00;7.33;;;;;14.78;50.09;100713.06;5056033;28;45418;-60
2022/04/19 01:01:03;;;;;;;;;9.33;9.33;;;;;14.78;50.05;100713.06;5055986;28;45508;-59
2022/04/19 01:03:28;;;;;;;;;9.00;9.00;;;;;14.67;49.96;100705.69;5067951;28;45471;-62
2022/04/19 01:05:55;;;;;;;;;10.67;9.67;;;;;14.70;49.82;100720.56;5058821;28;45450;-60
2022/04/19 01:08:22;;;;;;;;;6.33;6.33;;;;;14.71;49.55;100716.97;5076672;28;45550;-61
2022/04/19 01:10:48;;;;;;;;;9.33;9.00;;;;;14.72;49.19;100719.53;5075510;28;46109;-60
2022/04/19 01:13:17;;;;;;;;;9.67;9.67;;;;;14.64;49.77;100719.06;5075831;27;45380;-60
2022/04/19 01:15:45;;;;;;;;;8.00;8.00;;;;;14.53;49.68;100714.31;5068275;28;45677;-60
2022/04/19 01:18:11;;;;;;;;;7.00;7.00;;;;;14.51;50.09;100715.28;5065336;28;45478;-60
2022/04/19 01:20:38;;;;;;;;;9.00;9.00;;;;;14.52;49.82;100712.59;5057954;28;45564;-63
2022/04/19 01:23:04;;;;;;;;;9.33;9.33;;;;;14.52;49.74;100719.63;5065257;28;45418;-60
2022/04/19 01:25:29;;;;;;;;;9.00;9.00;;;;;14.49;50.46;100720.66;5074272;28;45494;-60
2022/04/19 01:27:55;;;;;;;;;7.33;7.33;;;;;14.42;49.92;100707.78;5061455;28;45511;-60
2022/04/19 01:30:20;;;;;;;;;10.33;10.33;;;;;14.40;50.73;100714.94;5058753;28;45415;-60
2022/04/19 01:32:46;;;;;;;;;10.00;8.33;;;;;14.35;50.70;100713.41;5075652;28;45395;-60
2022/04/19 01:35:17;;;;;;;;;8.67;7.67;;;;;14.28;50.50;100705.84;5074255;27;45453;-60
2022/04/19 01:37:45;;;;;;;;;9.33;9.33;;;;;14.30;50.62;100704.81;5070768;28;45398;-60
2022/04/19 01:40:17;;;;;;;;;7.00;7.00;;;;;14.39;50.00;100700.88;5055425;28;46908;-60
2022/04/19 01:42:46;;;;;;;;;8.33;8.33;;;;;14.37;50.08;100700.06;5059015;28;45445;-59
2022/04/19 01:45:13;;;;;;;;;8.00;8.00;;;;;14.32;50.28;100702.97;5056454;28;45435;-60
2022/04/19 01:47:39;;;;;;;;;8.00;7.67;;;;;14.29;50.10;100708.41;5075800;27;45462;-60
2022/04/19 01:50:09;;;;;;;;;7.00;7.00;;;;;14.29;50.45;100705.78;5073555;27;46072;-59
2022/04/19 01:52:35;;;;;;;;;7.00;7.00;;;;;14.32;49.52;100697.69;5055462;28;45588;-59
2022/04/19 01:55:01;;;;;;;;;7.33;7.33;;;;;14.42;49.53;100705.16;5066308;28;45456;-59
2022/04/19 01:57:26;;;;;;;;;8.00;7.00;;;;;14.47;49.38;100703.97;5063702;28;45622;-59
2022/04/19 01:59:51;;;;;;;;;10.00;9.00;;;;;14.41;49.11;100700.78;5075519;27;46102;-59
2022/04/19 02:02:17;;;;;;;;;7.00;7.00;;;;;14.33;49.13;100691.44;5073547;27;45515;-59
2022/04/19 02:04:42;;;;;;;;;7.00;7.00;;;;;14.34;48.66;100698.44;5058432;27;45524;-59
2022/04/19 02:07:07;;;;;;;;;7.00;5.33;;;;;14.29;48.69;100704.88;5065106;28;45573;-59
2022/04/19 02:09:34;;;;;;;;;9.00;9.00;;;;;14.20;48.75;100698.25;5074967;27;45934;-59
2022/04/19 02:12:00;;;;;;;;;7.67;7.67;;;;;14.25;48.53;100696.25;5073671;28;45413;-60
2022/04/19 02:14:26;;;;;;;;;5.33;5.33;;;;;14.18;48.24;100697.47;5055327;28;45240;-60
2022/04/19 02:16:53;;;;;;;;;6.67;6.67;;;;;14.15;48.47;100701.13;5072074;28;45499;-60
2022/04/19 02:19:18;;;;;;;;;7.67;7.33;;;;;14.20;48.30;100710.63;5059563;28;46311;-60
2022/04/19 02:21:45;;;;;;;;;6.00;6.00;;;;;14.14;47.59;100690.63;5073900;28;45398;-60
2022/04/19 02:24:10;;;;;;;;;4.00;4.00;;;;;14.13;47.89;100697.72;5063348;28;45382;-60
2022/04/19 02:26:36;;;;;;;;;5.00;5.00;;;;;14.15;47.66;100694.97;5068566;27;45568;-60
2022/04/19 02:29:01;;;;;;;;;5.00;5.00;;;;;14.07;47.87;100697.16;5057995;28;46505;-59
2022/04/19 02:31:27;;;;;;;;;6.00;6.00;;;;;13.98;47.46;100689.66;5070865;28;45455;-59
2022/04/19 02:33:53;;;;;;;;;5.00;4.33;;;;;13.95;47.41;100703.03;5078241;27;45450;-60
2022/04/19 02:36:19;;;;;;;;;5.00;5.00;;;;;13.91;47.04;100694.38;5062091;27;45435;-60
2022/04/19 02:38:45;;;;;;;;;5.00;5.00;;;;;13.85;47.03;100692.88;5072775;28;46060;-60
2022/04/19 02:41:10;;;;;;;;;4.67;4.00;;;;;13.82;47.06;100685.09;5076371;27;45461;-60
2022/04/19 02:43:35;;;;;;;;;6.00;6.00;;;;;13.83;47.41;100681.50;5058304;28;45434;-60
2022/04/19 02:46:01;;;;;;;;;6.33;5.33;;;;;13.85;47.31;100687.59;5063148;28;45525;-60
2022/04/19 02:48:28;;;;;;;;;7.00;6.00;;;;;13.77;47.38;100700.31;5091197;27;45548;-60
2022/04/19 02:50:53;;;;;;;;;6.00;5.00;;;;;13.72;47.26;100689.09;5074458;27;45540;-60
2022/04/19 02:53:19;;;;;;;;;4.00;4.00;;;;;13.73;47.14;100695.25;5057591;28;45399;-59
2022/04/19 02:55:44;;;;;;;;;6.00;5.00;;;;;13.77;47.15;100692.41;5068435;28;45391;-59
2022/04/19 02:58:09;;;;;;;;;6.00;6.00;;;;;13.73;46.93;100687.31;5058973;28;45960;-59
2022/04/19 03:00:35;;;;;;;;;7.67;4.33;;;;;13.79;47.23;100681.75;5072373;27;45554;-59
2022/04/19 03:03:00;;;;;;;;;4.00;4.00;;;;;13.82;47.21;100685.09;5062590;28;45434;-60
2022/04/19 03:05:26;;;;;;;;;4.00;4.00;;;;;13.79;46.44;100673.81;5073876;27;45460;-60
2022/04/19 03:07:52;;;;;;;;;4.00;2.33;;;;;13.79;46.42;100682.59;5057581;28;46007;-60
2022/04/19 03:10:17;;;;;;;;;3.00;3.00;;;;;13.71;45.97;100687.41;5076061;27;45509;-61
2022/04/19 03:12:43;;;;;;;;;6.00;6.00;;;;;13.67;45.95;100681.41;5098656;27;45899;-60
2022/04/19 03:15:11;;;;;;;;;4.00;3.00;;;;;13.56;45.97;100683.66;5096158;27;45639;-60
2022/04/19 03:17:37;;;;;;;;;3.00;3.00;;;;;13.53;45.79;100678.53;5077355;27;45420;-59
2022/04/19 03:20:03;;;;;;;;;4.00;4.00;;;;;13.53;45.90;100686.47;5066357;27;45427;-60
2022/04/19 03:27:41;;;;;;;;;4.00;4.00;;;;;13.52;45.85;100683.91;5069717;28;45350;-60
2022/04/19 03:27:58;;;;;;;;;3.33;3.33;;;;;13.52;45.43;100678.63;5075837;28;45401;-60
2022/04/19 03:30:23;;;;;;;;;3.00;3.00;;;;;13.56;46.16;100685.47;5077059;27;45423;-59
2022/04/19 03:32:52;;;;;;;;;2.00;2.00;;;;;13.55;45.38;100678.47;5077883;27;45353;-59
2022/04/19 03:35:18;;;;;;;;;3.00;3.00;;;;;13.45;45.50;100680.69;5076073;27;45468;-60
2022/04/19 03:37:43;;;;;;;;;5.00;3.00;;;;;13.43;45.93;100672.84;5075860;27;46293;-60
2022/04/19 03:40:09;;;;;;;;;7.00;5.00;;;;;13.41;45.80;100673.84;5060740;27;45447;-60
2022/04/19 03:42:35;;;;;;;;;3.67;3.33;;;;;13.36;45.39;100665.25;5076855;28;45424;-61
2022/04/19 03:45:00;;;;;;;;;4.00;3.00;;;;;13.34;45.98;100667.09;5077263;27;45543;-60
2022/04/19 03:47:25;;;;;;;;;4.00;4.00;;;;;13.36;45.47;100666.09;5070072;28;46407;-60
2022/04/19 03:49:51;;;;;;;;;4.67;4.00;;;;;13.38;45.69;100660.75;5057082;28;45398;-60
2022/04/19 03:52:16;;;;;;;;;5.00;4.67;;;;;13.36;45.95;100666.09;5066116;27;45617;-60
2022/04/19 03:54:42;;;;;;;;;4.00;2.33;;;;;13.35;45.97;100669.69;5097715;27;45405;-60
2022/04/19 03:57:08;;;;;;;;;3.00;3.00;;;;;13.34;46.17;100667.97;5097832;27;46226;-60
2022/04/19 03:59:38;;;;;;;;;3.67;3.33;;;;;13.30;46.00;100658.47;5078392;27;45336;-61
2022/04/19 04:02:04;;;;;;;;;3.00;2.00;;;;;13.33;46.18;100654.84;5074244;28;45506;-59
2022/04/19 04:04:34;;;;;;;;;3.33;3.33;;;;;13.37;46.58;100656.41;5060506;28;45588;-60
2022/04/19 04:07:01;;;;;;;;;4.00;4.00;;;;;13.33;46.84;100662.75;5073841;28;46142;-59
2022/04/19 04:09:32;;;;;;;;;3.00;3.00;;;;;13.26;46.26;100664.81;5076904;27;45505;-59
2022/04/19 04:12:02;;;;;;;;;2.33;2.33;;;;;13.26;46.96;100662.16;5077045;28;45465;-59
2022/04/19 04:14:28;;;;;;;;;5.00;5.00;;;;;13.31;46.63;100668.09;5075214;27;45571;-60
2022/04/19 04:16:53;;;;;;;;;3.00;3.00;;;;;13.33;47.48;100668.03;5059690;27;45724;-59
2022/04/19 04:19:19;;;;;;;;;4.00;4.00;;;;;13.32;47.87;100659.25;5057857;28;45398;-59
2022/04/19 04:21:44;;;;;;;;;4.00;3.33;;;;;13.28;47.71;100664.75;5071460;28;51422;-60
2022/04/19 04:24:09;;;;;;;;;5.33;5.33;;;;;13.18;48.89;100667.75;5073632;27;45413;-60
2022/04/19 04:26:35;;;;;;;;;4.33;3.00;;;;;13.15;48.74;100661.78;5070917;27;48190;-59
2022/04/19 04:29:00;;;;;;;;;4.00;4.00;;;;;13.18;48.26;100665.13;5056326;28;45461;-60
2022/04/19 04:31:25;;;;;;;;;7.67;4.00;;;;;13.25;48.65;100665.72;5057504;28;45488;-60
2022/04/19 04:33:51;;;;;;;;;6.00;6.00;;;;;13.30;49.02;100662.88;5076673;27;45480;-60
2022/04/19 04:36:16;;;;;;;;;4.67;4.67;;;;;13.16;48.54;100659.03;5074156;27;45521;-60
2022/04/19 04:38:41;;;;;;;;;6.00;6.00;;;;;13.11;49.26;100661.06;5060632;28;45540;-60
2022/04/19 04:41:07;;;;;;;;;4.00;4.00;;;;;13.10;49.09;100661.13;5070829;28;45980;-60
2022/04/19 04:43:32;;;;;;;;;5.67;4.00;;;;;13.04;49.21;100670.16;5076047;27;45421;-60
2022/04/19 04:51:25;;;;;;;;;5.33;4.67;;;;;13.01;50.31;100671.16;5068402;28;45497;-59
2022/04/19 04:53:50;;;;;;;;;5.33;4.00;;;;;13.02;49.67;100682.56;5074084;27;48747;-59
2022/04/19 04:56:16;;;;;;;;;3.67;3.67;;;;;12.94;50.42;100676.78;5070004;27;45433;-60
2022/04/19 04:58:41;;;;;;;;;5.00;4.00;;;;;12.93;50.40;100683.00;5088078;27;45505;-60
2022/04/19 05:01:06;;;;;;;;;6.00;5.00;;;;;13.01;49.97;100679.09;5074147;27;45519;-60
2022/04/19 05:03:32;;;;;;;;;6.00;4.00;;;;;13.02;49.54;100683.44;5059307;28;45545;-60
2022/04/19 05:05:57;;;;;;;;;6.33;5.67;;;;;13.03;50.76;100686.94;5072264;28;45400;-60
2022/04/19 05:08:22;;;;;;;;;5.00;4.00;;;;;12.91;51.36;100692.75;5055985;28;45448;-60
2022/04/19 05:10:47;;;;;;;;;4.67;4.67;;;;;12.85;50.53;100685.97;5056360;28;45493;-60
2022/04/19 05:13:13;;;;;;;;;5.00;5.00;;;;;12.81;51.41;100679.09;5055511;28;49332;-60
2022/04/19 05:15:38;;;;;;;;;5.00;5.00;;;;;12.79;51.85;100675.69;5060664;28;45498;-60
2022/04/19 05:18:03;;;;;;;;;4.67;4.00;;;;;12.79;52.16;100686.25;5064887;27;45529;-60
2022/04/19 05:20:29;;;;;;;;;3.67;3.67;;;;;12.72;52.17;100687.41;5071266;27;45374;-59
2022/04/19 05:22:54;;;;;;;;;4.67;3.00;;;;;12.77;51.77;100680.16;5055746;28;45382;-59
2022/04/19 05:25:19;;;;;;;;;4.00;4.00;;;;;12.88;52.37;100683.19;5057764;28;45554;-59
2022/04/19 05:27:45;;;;;;;;;7.00;6.00;;;;;12.89;51.64;100686.69;5068493;28;45463;-60
2022/04/19 05:30:10;;;;;;;;;3.67;3.00;;;;;12.90;51.38;100683.97;5063673;28;45409;-59
2022/04/19 05:32:35;;;;;;;;;2.00;2.00;;;;;12.89;52.08;100690.16;5075743;27;45448;-58
2022/04/19 05:35:01;;;;;;;;;5.33;4.00;;;;;12.93;51.88;100680.34;5073608;27;45461;-58
2022/04/19 05:37:26;;;;;;;;;3.33;3.33;;;;;12.91;51.86;100690.13;5068394;28;45516;-58
2022/04/19 05:39:52;;;;;;;;;6.00;4.00;;;;;12.84;52.69;100681.59;5061447;28;45412;-58
2022/04/19 05:42:17;;;;;;;;;6.67;4.00;;;;;12.80;52.96;100685.31;5075112;27;45412;-60
2022/04/19 05:44:43;;;;;;;;;6.33;6.33;;;;;12.85;52.54;100685.97;5073766;27;45643;-58
2022/04/19 05:47:09;;;;;;;;;4.33;4.33;;;;;12.86;53.43;100690.31;5073467;28;45493;-59
2022/04/19 05:49:35;;;;;;;;;4.33;3.67;;;;;12.89;52.61;100690.16;5055633;27;45467;-62
2022/04/19 05:52:01;;;;;;;;;6.33;6.33;;;;;12.97;52.87;100695.13;5069115;28;45561;-59
2022/04/19 05:54:27;;;;;;;;;3.67;3.00;;;;;12.99;52.90;100688.00;5082046;27;46584;-59
2022/04/19 05:56:52;;;;;;;;;5.00;5.00;;;;;12.99;52.36;100688.84;5099368;27;45396;-59
2022/04/19 05:59:17;;;;;;;;;5.00;4.00;;;;;12.97;52.59;100685.41;5087146;27;45394;-59
2022/04/19 06:07:11;;;;;;;;;5.33;4.00;;;;;12.99;53.03;100680.06;5079238;28;45489;-59
2022/04/19 06:09:36;;;;;;;;;6.33;5.00;;;;;13.04;53.65;100683.38;5078703;27;46065;-59
2022/04/19 06:12:01;;;;;;;;;6.67;5.67;;;;;13.08;53.24;100677.00;5096437;27;45653;-59
2022/04/19 06:14:27;;;;;;;;;5.00;5.00;;;;;13.10;53.33;100682.25;5087914;27;45916;-59
2022/04/19 06:16:52;;;;;;;;;5.00;5.00;;;;;13.05;52.99;100693.84;5058767;28;45530;-59
2022/04/19 06:19:18;;;;;;;;;4.00;4.00;;;;;12.92;54.68;100690.06;5066133;28;45553;-60
2022/04/19 06:21:45;;;;;;;;;4.67;4.67;;;;;12.85;54.25;100691.25;5078898;27;45476;-60
2022/04/19 06:24:10;;;;;;;;;5.67;4.67;;;;;12.83;54.58;100688.66;5077122;27;45435;-60
2022/04/19 06:26:35;;;;;;;;;5.00;5.00;;;;;12.74;55.16;100693.50;5061427;28;46689;-59
2022/04/19 06:29:01;;;;;;;;;6.00;6.00;;;;;12.71;54.83;100693.63;5075838;28;45397;-59
2022/04/19 06:31:27;;;;;;;;;4.33;4.00;;;;;12.72;54.84;100690.91;5077128;28;45558;-59
2022/04/19 06:33:53;;;;;;;;;5.00;5.00;;;;;12.67;54.99;100687.59;5077883;28;45460;-59
2022/04/19 06:36:19;;;;;;;;;8.33;5.67;;;;;12.73;54.67;100697.03;5077855;27;45441;-59
2022/04/19 06:38:44;;;;;;;;;4.33;3.67;;;;;12.80;55.28;100693.22;5078038;27;45511;-59
2022/04/19 06:41:11;;;;;;;;;5.00;5.00;;;;;12.85;54.24;100696.53;5077622;27;45521;-60
2022/04/19 06:43:37;;;;;;;;;8.00;6.33;;;;;12.78;55.23;100685.34;5078063;27;45398;-59
2022/04/19 06:46:02;;;;;;;;;7.00;7.00;;;;;12.78;55.50;100684.50;5078174;27;45390;-59
2022/04/19 06:48:29;;;;;;;;;5.00;5.00;;;;;12.84;55.08;100684.22;5078348;27;45408;-59
2022/04/19 06:50:54;;;;;;;;;5.33;5.33;;;;;12.87;54.09;100684.13;5077935;27;45482;-59
2022/04/19 06:53:20;;;;;;;;;5.00;5.00;;;;;12.92;54.21;100681.25;5077727;27;45398;-58
2022/04/19 06:55:45;;;;;;;;;9.00;8.00;;;;;13.05;54.27;100678.00;5076564;28;45677;-58
2022/04/19 06:58:10;;;;;;;;;7.00;7.00;;;;;13.10;54.23;100685.72;5075808;27;45647;-58
2022/04/19 07:00:36;;;;;;;;;11.00;9.33;;;;;13.10;55.10;100684.88;5057063;28;45585;-62
2022/04/19 07:03:01;;;;;;;;;6.67;5.67;;;;;13.15;54.05;100683.75;5070981;27;46159;-58
2022/04/19 07:05:26;;;;;;;;;8.00;8.00;;;;;13.21;54.05;100690.53;5055949;28;45466;-58
2022/04/19 07:07:52;;;;;;;;;8.00;8.00;;;;;13.27;54.11;100692.94;5057740;28;45453;-59
2022/04/19 07:10:17;;;;;;;;;7.00;7.00;;;;;13.30;53.33;100684.88;5057343;28;45593;-58
2022/04/19 07:12:44;;;;;;;;;11.00;8.67;;;;;13.39;53.48;100686.25;5057116;28;45472;-58
2022/04/19 07:15:10;;;;;;;;;7.00;7.00;;;;;13.44;53.20;100681.63;5055984;28;45457;-59
2022/04/19 07:17:40;;;;;;;;;8.00;8.00;;;;;13.48;52.60;100684.03;5057201;28;45481;-60
2022/04/19 07:28:31;;;;;;;;;8.33;8.33;;;;;13.60;51.82;100684.41;5057097;28;45387;-58
2022/04/19 07:30:56;;;;;;;;;12.00;9.67;;;;;13.60;51.96;100679.97;5056830;28;45447;-58
2022/04/19 07:33:22;;;;;;;;;12.00;8.33;;;;;13.66;52.17;100677.03;5056815;28;45477;-60
2022/04/19 07:35:47;;;;;;;;;12.00;9.33;;;;;13.76;51.73;100681.91;5056849;28;45450;-59
2022/04/19 07:38:13;;;;;;;;;13.67;12.33;;;;;13.67;51.31;100668.19;5057131;28;45449;-59
2022/04/19 07:40:38;;;;;;;;;9.33;9.33;;;;;13.76;51.73;100685.41;5056945;28;45502;-59
2022/04/19 07:43:04;;;;;;;;;8.33;8.33;;;;;13.79;50.98;100684.41;5056681;28;46213;-59
2022/04/19 07:45:29;;;;;;;;;11.00;11.00;;;;;13.78;50.93;100682.66;5056833;28;45379;-58
2022/04/19 07:47:55;;;;;;;;;7.33;7.33;;;;;13.80;50.86;100680.81;5057102;28;45484;-59
2022/04/19 07:50:20;;;;;;;;;10.33;6.67;;;;;13.79;51.01;100679.97;5056853;28;45379;-60
2022/04/19 07:52:46;;;;;;;;;12.33;12.33;;;;;13.84;50.66;100677.13;5056589;28;46501;-59
2022/04/19 07:55:11;;;;;;;;;17.33;15.33;;;;;13.87;50.87;100679.59;5056533;28;45369;-59
2022/04/19 07:57:36;;;;;;;;;12.67;11.00;;;;;13.87;51.07;100677.81;5056917;28;45444;-58
2022/04/19 08:00:04;;;;;;;;;10.00;10.00;;;;;13.91;50.75;100674.06;5056721;28;45384;-59
2022/04/19 08:02:30;;;;;;;;;13.33;12.67;;;;;13.92;50.64;100681.09;5056014;28;45497;-58
2022/04/19 08:04:56;;;;;;;;;15.67;15.67;;;;;13.90;50.80;100671.53;5056644;28;45436;-59
2022/04/19 08:07:21;;;;;;;;;14.00;13.00;;;;;13.99;50.41;100676.34;5056440;28;45500;-59
2022/04/19 08:09:47;;;;;;;;;15.00;13.00;;;;;13.94;50.56;100670.44;5056326;28;45476;-59
2022/04/19 08:12:12;;;;;;;;;15.00;14.00;;;;;13.97;50.13;100674.72;5055483;28;45531;-59
2022/04/19 08:14:41;;;;;;;;;15.00;15.00;;;;;13.99;50.14;100662.28;5055562;28;45515;-59
2022/04/19 08:17:06;;;;;;;;;12.00;12.00;;;;;14.09;50.06;100674.97;5056379;28;45459;-59
2022/04/19 08:19:32;;;;;;;;;8.00;8.00;;;;;14.05;48.49;100662.84;5055967;28;45571;-59
2022/04/19 08:21:57;;;;;;;;;10.67;10.67;;;;;14.14;48.80;100674.78;5056012;28;45977;-59
2022/04/19 08:24:23;;;;;;;;;12.67;11.33;;;;;14.19;49.07;100671.91;5056089;28;45378;-59
2022/04/19 08:26:48;;;;;;;;;5.00;5.00;;;;;14.26;48.93;100675.94;5056156;28;45486;-59
2022/04/19 08:29:14;;;;;;;;;7.33;7.00;;;;;14.27;48.19;100669.75;5055724;28;45502;-59
2022/04/19 08:31:39;;;;;;;;;11.33;8.67;;;;;14.36;48.25;100675.41;5056066;28;45473;-59
2022/04/19 08:34:04;;;;;;;;;11.33;11.33;;;;;14.36;47.55;100679.84;5055983;28;45430;-59
2022/04/19 08:36:30;;;;;;;;;12.33;12.33;;;;;14.39;47.39;100677.03;5056233;28;45407;-59
2022/04/19 08:38:55;;;;;;;;;9.67;9.67;;;;;14.43;47.52;100672.47;5056307;28;45459;-59
2022/04/19 08:41:21;;;;;;;;;9.33;9.33;;;;;14.42;46.80;100674.25;5055631;28;45540;-59
2022/04/19 08:43:46;;;;;;;;;9.00;7.33;;;;;14.47;47.06;100674.03;5054481;28;45491;-59
2022/04/19 08:46:13;;;;;;;;;14.67;13.33;;;;;14.50;46.96;100677.34;5055700;28;45459;-59
2022/04/19 08:48:40;;;;;;;;;9.00;9.00;;;;;14.56;46.61;100673.56;5055673;28;45498;-59
2022/04/19 08:51:10;;;;;;;;;9.00;8.33;;;;;14.64;46.70;100668.78;5055390;28;46396;-59
2022/04/19 08:59:06;;;;;;;;;10.67;10.67;;;;;14.74;45.59;100666.50;5055330;28;45415;-59
2022/04/19 09:01:31;;;;;;;;;10.00;10.00;;;;;14.78;45.51;100663.63;5054962;28;45418;-59
2022/04/19 09:03:57;;;;;;;;;11.67;11.67;;;;;14.83;45.68;100665.16;5055504;28;45471;-59
2022/04/19 09:07:00;;;;;;;;;9.00;9.00;;;;;14.90;45.49;100663.91;5055578;28;45471;-59
2022/04/19 09:09:34;;;;;;;;;11.33;10.00;;;;;14.98;44.44;100662.56;5055632;28;45453;-59
2022/04/19 09:12:10;;;;;;;;;9.00;9.00;;;;;15.01;44.32;100657.09;5055054;28;45423;-59
2022/04/19 09:14:53;;;;;;;;;14.67;8.00;;;;;15.09;44.55;100656.69;5053680;28;45402;-59
2022/04/19 09:17:18;;;;;;;;;10.00;9.00;;;;;15.11;45.05;100653.97;5055334;28;45405;-62
2022/04/19 09:19:44;;;;;;;;;10.67;10.67;;;;;15.18;44.88;100658.88;5055270;28;45582;-58
2022/04/19 09:22:09;;;;;;;;;11.33;11.33;;;;;15.20;44.77;100656.13;5055040;28;45861;-59
2022/04/19 09:24:35;;;;;;;;;15.00;12.33;;;;;15.27;44.39;100654.03;5054999;28;45398;-59
2022/04/19 09:27:00;;;;;;;;;12.33;10.00;;;;;15.34;44.15;100653.59;5055296;28;45371;-59
2022/04/19 09:29:27;;;;;;;;;9.67;9.67;;;;;15.33;44.77;100646.56;5054872;28;45394;-59
2022/04/19 09:31:55;;;;;;;;;11.33;10.00;;;;;15.39;44.50;100650.69;5054910;28;46100;-59
2022/04/19 09:34:24;;;;;;;;;14.67;12.67;;;;;15.38;44.37;100649.00;5054984;28;45560;-59
2022/04/19 09:36:54;;;;;;;;;12.33;12.33;;;;;15.44;44.92;100649.50;5055084;28;45426;-59
2022/04/19 09:39:27;;;;;;;;;11.00;9.67;;;;;15.43;45.34;100639.84;5054862;28;45458;-59
2022/04/19 09:42:07;;;;;;;;;10.67;10.67;;;;;15.50;44.68;100637.72;5054273;28;46614;-58
2022/04/19 09:44:39;;;;;;;;;11.67;10.00;;;;;15.54;45.65;100636.59;5054608;28;45477;-59
2022/04/19 09:47:05;;;;;;;;;12.33;11.00;;;;;15.56;45.52;100637.38;5054873;28;45460;-59
2022/04/19 09:49:50;;;;;;;;;15.00;15.00;;;;;15.55;44.85;100637.44;5054932;28;45429;-59
2022/04/19 09:52:21;;;;;;;;;13.00;8.67;;;;;15.61;45.15;100637.13;5054604;28;45964;-58
2022/04/19 09:55:10;;;;;;;;;11.00;11.00;;;;;15.66;45.00;100635.03;5054541;28;45441;-58
2022/04/19 09:57:40;;;;;;;;;16.33;14.67;;;;;15.72;45.70;100637.41;5053278;28;45438;-59
2022/04/19 10:00:12;;;;;;;;;12.33;12.33;;;;;15.78;45.47;100641.50;5053098;28;45613;-59
2022/04/19 10:08:19;;;;;;;;;16.67;16.67;;;;;16.00;45.12;100618.13;5054548;28;45474;-59
2022/04/19 10:10:49;;;;;;;;;13.33;11.67;;;;;16.05;44.70;100607.25;5052941;28;45415;-59
2022/04/19 10:13:17;;;;;;;;;17.33;15.67;;;;;16.09;45.49;100616.72;5054068;28;46203;-58
2022/04/19 10:15:42;;;;;;;;;13.00;11.33;;;;;16.13;44.35;100612.97;5054315;28;45348;-59
2022/04/19 10:18:08;;;;;;;;;15.33;14.00;;;;;16.22;45.08;100600.94;5054401;28;45479;-60
2022/04/19 10:20:41;;;;;;;;;13.00;13.00;;;;;16.28;44.63;100596.16;5054408;28;45411;-59
2022/04/19 10:23:09;;;;;;;;;15.33;14.00;;;;;16.35;45.04;100588.66;5054061;28;46106;-60
2022/04/19 10:25:44;;;;;;;;;16.67;13.33;;;;;16.42;44.80;100597.97;5052607;28;45548;-59
2022/04/19 10:28:25;;;;;;;;;21.00;19.67;;;;;16.45;43.57;100604.91;5054149;28;45549;-60
2022/04/19 10:30:52;;;;;;;;;18.33;18.33;;;;;16.48;44.19;100599.41;5054157;28;45511;-59
2022/04/19 10:33:39;;;;;;;;;17.67;16.00;;;;;16.53;44.68;100605.31;5053904;28;46294;-59
2022/04/19 10:36:12;;;;;;;;;15.00;13.67;;;;;16.59;43.76;100593.44;5054661;28;45445;-59
2022/04/19 10:38:37;;;;;;;;;16.67;16.67;;;;;16.62;44.03;100590.59;5057685;28;45548;-60
2022/04/19 10:41:03;;;;;;;;;17.67;17.33;;;;;16.67;44.19;100581.41;5057575;28;45659;-60
2022/04/19 10:43:29;;;;;;;;;13.67;12.33;;;;;16.75;44.24;100588.91;5057527;28;46094;-59
2022/04/19 10:46:21;;;;;;;;;17.00;14.67;;;;;16.73;44.49;100582.84;5057413;28;45530;-59
2022/04/19 10:49:22;;;;;;;;;16.33;15.67;;;;;16.81;44.25;100583.25;5057005;28;45339;-59
2022/04/19 10:51:47;;;;;;;;;16.00;14.67;;;;;16.82;44.05;100582.31;5055536;28;45686;-58
2022/04/19 10:54:15;;;;;;;;;21.00;18.33;;;;;16.87;44.43;100576.69;5056552;28;46217;-59
2022/04/19 10:58:05;;;;;;;;;14.67;13.67;;;;;16.91;43.70;100587.06;5056835;28;45612;-59
2022/04/19 11:00:20;;;;;;;;;19.00;16.00;;;;;16.94;43.78;100581.53;5056938;28;45420;-59
2022/04/19 11:02:57;;;;;;;;;15.33;15.33;;;;;16.98;43.98;100574.25;5057514;28;45463;-59
2022/04/19 11:05:41;;;;;;;;;15.67;15.00;;;;;17.00;43.21;100575.00;5064456;28;47185;-60
2022/04/19 11:08:30;;;;;;;;;18.50;17.00;;;;;16.97;43.69;100581.34;5057122;28;45449;-60
2022/04/19 11:10:55;;;;;;;;;46.00;38.00;;;;;16.96;43.32;100566.38;5056874;28;45564;-60
2022/04/19 11:13:28;;;;;;;;;40.33;34.33;;;;;16.98;44.25;100561.81;5055486;28;45589;-60
2022/04/19 11:16:05;;;;;;;;;22.33;19.00;;;;;17.03;44.07;100568.63;5056777;28;45441;-61
2022/04/19 11:18:32;;;;;;;;;23.00;21.67;;;;;17.09;44.27;100560.31;5055497;28;45457;-59
2022/04/19 11:21:03;;;;;;;;;14.00;14.00;;;;;17.09;43.74;100568.28;5058059;28;45719;-60
2022/04/19 11:23:50;;;;;;;;;23.67;20.00;;;;;17.16;44.36;100564.25;5077157;27;45416;-60
2022/04/19 11:26:24;;;;;;;;;17.33;17.33;;;;;17.15;44.13;100566.06;5068702;27;46075;-59
2022/04/19 11:29:10;;;;;;;;;22.33;20.00;;;;;17.17;44.29;100560.66;5095588;27;45483;-59
2022/04/19 11:31:56;;;;;;;;;19.00;16.67;;;;;17.19;44.30;100561.41;5093063;27;45507;-59
2022/04/19 11:34:21;;;;;;;;;19.33;16.67;;;;;17.20;44.97;100553.34;5096480;27;45467;-60
2022/04/19 11:36:47;;;;;;;;;20.00;18.00;;;;;17.27;44.60;100561.75;5096788;27;46098;-59
2022/04/19 11:47:47;;;;;;;;;18.33;17.33;;;;;17.33;43.83;100549.88;5054659;28;45499;-60
2022/04/19 11:50:30;;;;;;;;;18.00;18.00;;;;;17.34;44.81;100554.25;5056060;28;45463;-59
2022/04/19 11:52:56;;;;;;;;;20.67;17.00;;;;;17.41;44.64;100556.44;5056304;28;45490;-59
2022/04/19 11:55:25;;;;;;;;;20.33;16.33;;;;;17.49;44.28;100563.91;5056327;28;45552;-63
2022/04/19 11:58:09;;;;;;;;;21.33;20.00;;;;;17.55;44.25;100555.53;5056401;28;46016;-59
2022/04/19 12:00:36;;;;;;;;;19.00;19.00;;;;;17.64;44.10;100554.91;5055758;28;45398;-59
2022/04/19 12:03:05;;;;;;;;;21.33;20.00;;;;;17.72;43.69;100551.75;5056068;28;45450;-59